sensor_id;sensor_type;location;lat;lon;timestamp;P1;durP1;ratioP1;P2;durP2;ratioP2
23262;SDS011;11800;49.830;9.922;2022-09-17T00:01:54;0.10;;;0.10;;
23262;SDS011;11800;49.830;9.922;2022-09-17T00:04:20;0.10;;;0.10;;
23262;SDS011;11800;49.830;9.922;2022-09-17T00:06:46;0.10;;;0.10;;
23262;SDS011;11800;49.830;9.922;2022-09-17T00:09:12;0.10;;;0.10;;
23262;SDS011;11800;49.830;9.922;2022-09-17T00:11:41;0.10;;;0.10;;
23262;SDS011;11800;49.830;9.922;2022-09-17T00:14:08;0.10;;;0.10;;
23262;SDS011;11800;49.830;9.922;2022-09-17T00:16:37;0.10;;;0.10;;
23262;SDS011;11800;49.830;9.922;2022-09-17T00:19:03;0.10;;;0.10;;
23262;SDS011;11800;49.830;9.922;2022-09-17T00:21:30;0.10;;;0.10;;
23262;SDS011;11800;49.830;9.922;2022-09-17T00:23:57;0.10;;;0.10;;
23262;SDS011;11800;49.830;9.922;2022-09-17T00:26:24;0.10;;;0.10;;
23262;SDS011;11800;49.830;9.922;2022-09-17T00:28:51;0.10;;;0.10;;
23262;SDS011;11800;49.830;9.922;2022-09-17T00:31:18;0.10;;;0.10;;
23262;SDS011;11800;49.830;9.922;2022-09-17T00:33:44;0.10;;;0.10;;
23262;SDS011;11800;49.830;9.922;2022-09-17T00:36:10;0.10;;;0.10;;
23262;SDS011;11800;49.830;9.922;2022-09-17T00:38:36;0.10;;;0.10;;
23262;SDS011;11800;49.830;9.922;2022-09-17T00:41:02;0.10;;;0.10;;
23262;SDS011;11800;49.830;9.922;2022-09-17T00:43:33;0.10;;;0.10;;
23262;SDS011;11800;49.830;9.922;2022-09-17T00:45:59;0.10;;;0.10;;
23262;SDS011;11800;49.830;9.922;2022-09-17T00:48:25;0.10;;;0.10;;
23262;SDS011;11800;49.830;9.922;2022-09-17T00:50:51;0.10;;;0.10;;
23262;SDS011;11800;49.830;9.922;2022-09-17T00:53:19;0.10;;;0.10;;
23262;SDS011;11800;49.830;9.922;2022-09-17T00:55:47;0.10;;;0.10;;
23262;SDS011;11800;49.830;9.922;2022-09-17T00:58:14;0.10;;;0.10;;
23262;SDS011;11800;49.830;9.922;2022-09-17T01:00:41;0.10;;;0.10;;
23262;SDS011;11800;49.830;9.922;2022-09-17T01:03:07;0.10;;;0.10;;
23262;SDS011;11800;49.830;9.922;2022-09-17T01:05:42;0.00;;;0.00;;
23262;SDS011;11800;49.830;9.922;2022-09-17T01:08:23;0.10;;;0.10;;
23262;SDS011;11800;49.830;9.922;2022-09-17T01:28:44;0.10;;;0.10;;
23262;SDS011;11800;49.830;9.922;2022-09-17T01:38:57;0.10;;;0.10;;
23262;SDS011;11800;49.830;9.922;2022-09-17T01:44:36;0.10;;;0.10;;
23262;SDS011;11800;49.830;9.922;2022-09-17T01:46:43;0.10;;;0.10;;
23262;SDS011;11800;49.830;9.922;2022-09-17T01:49:10;0.10;;;0.10;;
23262;SDS011;11800;49.830;9.922;2022-09-17T01:51:39;0.10;;;0.10;;
23262;SDS011;11800;49.830;9.922;2022-09-17T01:54:10;0.10;;;0.10;;
23262;SDS011;11800;49.830;9.922;2022-09-17T01:56:39;0.10;;;0.10;;
23262;SDS011;11800;49.830;9.922;2022-09-17T01:59:12;0.10;;;0.10;;
23262;SDS011;11800;49.830;9.922;2022-09-17T02:01:39;0.10;;;0.10;;
23262;SDS011;11800;49.830;9.922;2022-09-17T02:04:09;0.10;;;0.10;;
23262;SDS011;11800;49.830;9.922;2022-09-17T02:06:36;0.00;;;0.00;;
23262;SDS011;11800;49.830;9.922;2022-09-17T02:11:35;0.10;;;0.10;;
23262;SDS011;11800;49.830;9.922;2022-09-17T02:14:02;0.10;;;0.10;;
23262;SDS011;11800;49.830;9.922;2022-09-17T02:16:35;0.10;;;0.10;;
23262;SDS011;11800;49.830;9.922;2022-09-17T02:19:04;0.10;;;0.10;;
23262;SDS011;11800;49.830;9.922;2022-09-17T02:24:03;0.10;;;0.10;;
23262;SDS011;11800;49.830;9.922;2022-09-17T02:26:32;0.10;;;0.10;;
23262;SDS011;11800;49.830;9.922;2022-09-17T02:29:12;0.15;;;0.15;;
23262;SDS011;11800;49.830;9.922;2022-09-17T02:31:41;0.10;;;0.10;;
23262;SDS011;11800;49.830;9.922;2022-09-17T02:34:07;0.10;;;0.10;;
23262;SDS011;11800;49.830;9.922;2022-09-17T02:36:34;0.10;;;0.10;;
23262;SDS011;11800;49.830;9.922;2022-09-17T02:39:01;0.10;;;0.10;;
23262;SDS011;11800;49.830;9.922;2022-09-17T02:41:31;0.10;;;0.10;;
23262;SDS011;11800;49.830;9.922;2022-09-17T02:44:01;0.10;;;0.10;;
23262;SDS011;11800;49.830;9.922;2022-09-17T02:49:23;0.10;;;0.10;;
23262;SDS011;11800;49.830;9.922;2022-09-17T02:56:52;0.20;;;0.20;;
23262;SDS011;11800;49.830;9.922;2022-09-17T02:59:24;0.10;;;0.10;;
23262;SDS011;11800;49.830;9.922;2022-09-17T03:01:58;0.10;;;0.10;;
23262;SDS011;11800;49.830;9.922;2022-09-17T03:04:26;0.10;;;0.10;;
23262;SDS011;11800;49.830;9.922;2022-09-17T03:06:54;0.10;;;0.10;;
23262;SDS011;11800;49.830;9.922;2022-09-17T03:09:20;0.10;;;0.10;;
23262;SDS011;11800;49.830;9.922;2022-09-17T03:11:46;0.10;;;0.10;;
23262;SDS011;11800;49.830;9.922;2022-09-17T03:14:12;0.10;;;0.10;;
23262;SDS011;11800;49.830;9.922;2022-09-17T03:16:38;0.00;;;0.00;;
23262;SDS011;11800;49.830;9.922;2022-09-17T03:19:04;0.10;;;0.10;;
23262;SDS011;11800;49.830;9.922;2022-09-17T03:21:30;0.10;;;0.10;;
23262;SDS011;11800;49.830;9.922;2022-09-17T03:23:56;0.10;;;0.10;;
23262;SDS011;11800;49.830;9.922;2022-09-17T03:26:24;0.10;;;0.10;;
23262;SDS011;11800;49.830;9.922;2022-09-17T03:28:50;0.10;;;0.10;;
23262;SDS011;11800;49.830;9.922;2022-09-17T03:31:16;0.10;;;0.10;;
23262;SDS011;11800;49.830;9.922;2022-09-17T03:33:42;0.10;;;0.10;;
23262;SDS011;11800;49.830;9.922;2022-09-17T03:36:08;0.10;;;0.10;;
23262;SDS011;11800;49.830;9.922;2022-09-17T03:38:34;0.10;;;0.10;;
23262;SDS011;11800;49.830;9.922;2022-09-17T03:41:03;0.10;;;0.10;;
23262;SDS011;11800;49.830;9.922;2022-09-17T03:43:31;0.10;;;0.10;;
23262;SDS011;11800;49.830;9.922;2022-09-17T03:45:57;0.10;;;0.10;;
23262;SDS011;11800;49.830;9.922;2022-09-17T03:48:23;0.10;;;0.10;;
23262;SDS011;11800;49.830;9.922;2022-09-17T03:50:49;0.10;;;0.10;;
23262;SDS011;11800;49.830;9.922;2022-09-17T03:53:15;0.10;;;0.10;;
23262;SDS011;11800;49.830;9.922;2022-09-17T03:55:41;0.10;;;0.10;;
23262;SDS011;11800;49.830;9.922;2022-09-17T03:58:07;0.10;;;0.10;;
23262;SDS011;11800;49.830;9.922;2022-09-17T04:00:34;0.10;;;0.10;;
23262;SDS011;11800;49.830;9.922;2022-09-17T04:03:04;0.10;;;0.10;;
23262;SDS011;11800;49.830;9.922;2022-09-17T04:05:30;0.10;;;0.10;;
23262;SDS011;11800;49.830;9.922;2022-09-17T04:07:57;0.10;;;0.10;;
23262;SDS011;11800;49.830;9.922;2022-09-17T04:10:23;0.10;;;0.10;;
23262;SDS011;11800;49.830;9.922;2022-09-17T04:12:49;0.10;;;0.10;;
23262;SDS011;11800;49.830;9.922;2022-09-17T04:15:15;0.10;;;0.10;;
23262;SDS011;11800;49.830;9.922;2022-09-17T04:17:41;0.10;;;0.10;;
23262;SDS011;11800;49.830;9.922;2022-09-17T04:20:07;0.10;;;0.10;;
23262;SDS011;11800;49.830;9.922;2022-09-17T04:22:33;0.10;;;0.10;;
23262;SDS011;11800;49.830;9.922;2022-09-17T04:24:59;0.10;;;0.10;;
23262;SDS011;11800;49.830;9.922;2022-09-17T04:27:25;0.10;;;0.10;;
23262;SDS011;11800;49.830;9.922;2022-09-17T04:29:51;0.10;;;0.10;;
23262;SDS011;11800;49.830;9.922;2022-09-17T04:32:17;0.10;;;0.10;;
23262;SDS011;11800;49.830;9.922;2022-09-17T04:34:43;0.10;;;0.10;;
23262;SDS011;11800;49.830;9.922;2022-09-17T04:37:09;0.10;;;0.10;;
23262;SDS011;11800;49.830;9.922;2022-09-17T04:39:35;0.10;;;0.10;;
23262;SDS011;11800;49.830;9.922;2022-09-17T04:42:02;0.10;;;0.10;;
23262;SDS011;11800;49.830;9.922;2022-09-17T04:44:28;0.10;;;0.10;;
23262;SDS011;11800;49.830;9.922;2022-09-17T04:46:54;0.10;;;0.10;;
23262;SDS011;11800;49.830;9.922;2022-09-17T04:49:20;0.10;;;0.10;;
23262;SDS011;11800;49.830;9.922;2022-09-17T04:51:46;0.10;;;0.10;;
23262;SDS011;11800;49.830;9.922;2022-09-17T04:54:12;0.10;;;0.10;;
23262;SDS011;11800;49.830;9.922;2022-09-17T04:56:38;0.10;;;0.10;;
23262;SDS011;11800;49.830;9.922;2022-09-17T04:59:04;0.10;;;0.10;;
23262;SDS011;11800;49.830;9.922;2022-09-17T05:01:30;0.10;;;0.10;;
23262;SDS011;11800;49.830;9.922;2022-09-17T05:03:56;0.10;;;0.10;;
23262;SDS011;11800;49.830;9.922;2022-09-17T05:06:22;0.10;;;0.10;;
23262;SDS011;11800;49.830;9.922;2022-09-17T05:08:48;0.10;;;0.10;;
23262;SDS011;11800;49.830;9.922;2022-09-17T05:11:14;0.10;;;0.10;;
23262;SDS011;11800;49.830;9.922;2022-09-17T05:13:41;0.10;;;0.10;;
23262;SDS011;11800;49.830;9.922;2022-09-17T05:16:07;0.10;;;0.10;;
23262;SDS011;11800;49.830;9.922;2022-09-17T05:18:33;0.10;;;0.10;;
23262;SDS011;11800;49.830;9.922;2022-09-17T05:20:59;0.10;;;0.10;;
23262;SDS011;11800;49.830;9.922;2022-09-17T05:23:25;0.10;;;0.10;;
23262;SDS011;11800;49.830;9.922;2022-09-17T05:25:51;0.00;;;0.00;;
23262;SDS011;11800;49.830;9.922;2022-09-17T05:28:17;0.10;;;0.10;;
23262;SDS011;11800;49.830;9.922;2022-09-17T05:30:43;0.10;;;0.10;;
23262;SDS011;11800;49.830;9.922;2022-09-17T05:33:09;0.10;;;0.10;;
23262;SDS011;11800;49.830;9.922;2022-09-17T05:35:35;0.10;;;0.10;;
23262;SDS011;11800;49.830;9.922;2022-09-17T05:38:03;0.10;;;0.10;;
23262;SDS011;11800;49.830;9.922;2022-09-17T05:40:30;0.10;;;0.10;;
23262;SDS011;11800;49.830;9.922;2022-09-17T05:42:59;0.10;;;0.10;;
23262;SDS011;11800;49.830;9.922;2022-09-17T05:45:26;0.10;;;0.10;;
23262;SDS011;11800;49.830;9.922;2022-09-17T05:47:55;0.10;;;0.10;;
23262;SDS011;11800;49.830;9.922;2022-09-17T05:50:21;0.10;;;0.10;;
23262;SDS011;11800;49.830;9.922;2022-09-17T05:52:48;0.10;;;0.10;;
23262;SDS011;11800;49.830;9.922;2022-09-17T05:55:14;0.10;;;0.10;;
23262;SDS011;11800;49.830;9.922;2022-09-17T05:57:40;0.10;;;0.10;;
23262;SDS011;11800;49.830;9.922;2022-09-17T06:00:06;0.10;;;0.10;;
23262;SDS011;11800;49.830;9.922;2022-09-17T06:02:33;0.10;;;0.10;;
23262;SDS011;11800;49.830;9.922;2022-09-17T06:04:59;0.10;;;0.10;;
23262;SDS011;11800;49.830;9.922;2022-09-17T06:07:26;0.10;;;0.10;;
23262;SDS011;11800;49.830;9.922;2022-09-17T06:09:52;0.10;;;0.10;;
23262;SDS011;11800;49.830;9.922;2022-09-17T06:12:18;0.10;;;0.10;;
23262;SDS011;11800;49.830;9.922;2022-09-17T06:14:44;0.10;;;0.10;;
23262;SDS011;11800;49.830;9.922;2022-09-17T06:17:10;0.10;;;0.10;;
23262;SDS011;11800;49.830;9.922;2022-09-17T06:19:36;0.10;;;0.10;;
23262;SDS011;11800;49.830;9.922;2022-09-17T06:22:03;0.10;;;0.10;;
23262;SDS011;11800;49.830;9.922;2022-09-17T06:24:30;0.10;;;0.10;;
23262;SDS011;11800;49.830;9.922;2022-09-17T06:26:56;0.10;;;0.10;;
23262;SDS011;11800;49.830;9.922;2022-09-17T06:29:22;0.10;;;0.10;;
23262;SDS011;11800;49.830;9.922;2022-09-17T06:31:48;0.10;;;0.10;;
23262;SDS011;11800;49.830;9.922;2022-09-17T06:34:15;0.10;;;0.10;;
23262;SDS011;11800;49.830;9.922;2022-09-17T06:36:41;0.10;;;0.10;;
23262;SDS011;11800;49.830;9.922;2022-09-17T06:39:07;0.10;;;0.10;;
23262;SDS011;11800;49.830;9.922;2022-09-17T06:41:35;0.10;;;0.10;;
23262;SDS011;11800;49.830;9.922;2022-09-17T06:44:02;0.10;;;0.10;;
23262;SDS011;11800;49.830;9.922;2022-09-17T06:46:28;0.20;;;0.20;;
23262;SDS011;11800;49.830;9.922;2022-09-17T06:48:54;0.10;;;0.10;;
23262;SDS011;11800;49.830;9.922;2022-09-17T06:51:20;0.10;;;0.10;;
23262;SDS011;11800;49.830;9.922;2022-09-17T06:53:46;0.10;;;0.10;;
23262;SDS011;11800;49.830;9.922;2022-09-17T06:56:13;0.13;;;0.13;;
23262;SDS011;11800;49.830;9.922;2022-09-17T06:58:39;0.10;;;0.10;;
23262;SDS011;11800;49.830;9.922;2022-09-17T07:01:09;0.00;;;0.00;;
23262;SDS011;11800;49.830;9.922;2022-09-17T07:03:35;0.10;;;0.10;;
23262;SDS011;11800;49.830;9.922;2022-09-17T07:06:03;0.10;;;0.10;;
23262;SDS011;11800;49.830;9.922;2022-09-17T07:08:32;0.10;;;0.10;;
23262;SDS011;11800;49.830;9.922;2022-09-17T07:10:58;0.10;;;0.10;;
23262;SDS011;11800;49.830;9.922;2022-09-17T07:13:25;0.10;;;0.10;;
23262;SDS011;11800;49.830;9.922;2022-09-17T07:15:51;0.10;;;0.10;;
23262;SDS011;11800;49.830;9.922;2022-09-17T07:18:18;0.10;;;0.10;;
23262;SDS011;11800;49.830;9.922;2022-09-17T07:20:50;0.20;;;0.20;;
23262;SDS011;11800;49.830;9.922;2022-09-17T07:23:17;0.10;;;0.10;;
23262;SDS011;11800;49.830;9.922;2022-09-17T07:25:43;0.17;;;0.17;;
23262;SDS011;11800;49.830;9.922;2022-09-17T07:28:09;0.10;;;0.10;;
23262;SDS011;11800;49.830;9.922;2022-09-17T07:30:35;0.10;;;0.10;;
23262;SDS011;11800;49.830;9.922;2022-09-17T07:33:01;0.10;;;0.10;;
23262;SDS011;11800;49.830;9.922;2022-09-17T07:35:27;0.10;;;0.10;;
23262;SDS011;11800;49.830;9.922;2022-09-17T07:37:53;0.10;;;0.10;;
23262;SDS011;11800;49.830;9.922;2022-09-17T07:40:19;0.10;;;0.10;;
23262;SDS011;11800;49.830;9.922;2022-09-17T07:42:45;0.10;;;0.10;;
23262;SDS011;11800;49.830;9.922;2022-09-17T07:45:11;0.10;;;0.10;;
23262;SDS011;11800;49.830;9.922;2022-09-17T07:47:38;0.10;;;0.10;;
23262;SDS011;11800;49.830;9.922;2022-09-17T07:50:05;0.10;;;0.10;;
23262;SDS011;11800;49.830;9.922;2022-09-17T07:52:31;0.10;;;0.10;;
23262;SDS011;11800;49.830;9.922;2022-09-17T07:54:57;0.10;;;0.10;;
23262;SDS011;11800;49.830;9.922;2022-09-17T07:57:23;0.10;;;0.10;;
23262;SDS011;11800;49.830;9.922;2022-09-17T07:59:49;0.10;;;0.10;;
23262;SDS011;11800;49.830;9.922;2022-09-17T08:02:16;0.10;;;0.10;;
23262;SDS011;11800;49.830;9.922;2022-09-17T08:04:42;0.10;;;0.10;;
23262;SDS011;11800;49.830;9.922;2022-09-17T08:07:11;0.10;;;0.10;;
23262;SDS011;11800;49.830;9.922;2022-09-17T08:09:37;0.10;;;0.10;;
23262;SDS011;11800;49.830;9.922;2022-09-17T08:12:03;0.10;;;0.10;;
23262;SDS011;11800;49.830;9.922;2022-09-17T08:14:29;0.10;;;0.10;;
23262;SDS011;11800;49.830;9.922;2022-09-17T08:16:56;0.10;;;0.10;;
23262;SDS011;11800;49.830;9.922;2022-09-17T08:19:22;0.10;;;0.10;;
23262;SDS011;11800;49.830;9.922;2022-09-17T08:21:48;0.10;;;0.10;;
23262;SDS011;11800;49.830;9.922;2022-09-17T08:24:14;0.10;;;0.10;;
23262;SDS011;11800;49.830;9.922;2022-09-17T08:26:40;0.10;;;0.10;;
23262;SDS011;11800;49.830;9.922;2022-09-17T08:29:06;0.10;;;0.10;;
23262;SDS011;11800;49.830;9.922;2022-09-17T08:31:32;0.10;;;0.10;;
23262;SDS011;11800;49.830;9.922;2022-09-17T08:33:59;0.10;;;0.10;;
23262;SDS011;11800;49.830;9.922;2022-09-17T08:36:25;0.10;;;0.10;;
23262;SDS011;11800;49.830;9.922;2022-09-17T08:38:52;0.10;;;0.10;;
23262;SDS011;11800;49.830;9.922;2022-09-17T08:41:23;0.10;;;0.10;;
23262;SDS011;11800;49.830;9.922;2022-09-17T08:56:53;0.10;;;0.10;;
23262;SDS011;11800;49.830;9.922;2022-09-17T09:04:34;0.10;;;0.10;;
23262;SDS011;11800;49.830;9.922;2022-09-17T09:07:09;0.10;;;0.10;;
23262;SDS011;11800;49.830;9.922;2022-09-17T09:09:38;0.15;;;0.15;;
23262;SDS011;11800;49.830;9.922;2022-09-17T09:12:15;0.10;;;0.10;;
23262;SDS011;11800;49.830;9.922;2022-09-17T09:14:47;0.10;;;0.10;;
23262;SDS011;11800;49.830;9.922;2022-09-17T09:17:13;0.10;;;0.10;;
23262;SDS011;11800;49.830;9.922;2022-09-17T09:19:43;0.10;;;0.10;;
23262;SDS011;11800;49.830;9.922;2022-09-17T09:25:24;0.10;;;0.10;;
23262;SDS011;11800;49.830;9.922;2022-09-17T09:27:56;0.10;;;0.10;;
23262;SDS011;11800;49.830;9.922;2022-09-17T09:30:23;0.10;;;0.10;;
23262;SDS011;11800;49.830;9.922;2022-09-17T09:32:55;0.10;;;0.10;;
23262;SDS011;11800;49.830;9.922;2022-09-17T09:37:53;0.10;;;0.10;;
23262;SDS011;11800;49.830;9.922;2022-09-17T09:40:36;0.13;;;0.13;;
23262;SDS011;11800;49.830;9.922;2022-09-17T09:43:11;0.10;;;0.10;;
23262;SDS011;11800;49.830;9.922;2022-09-17T09:45:53;0.10;;;0.10;;
23262;SDS011;11800;49.830;9.922;2022-09-17T09:53:52;0.10;;;0.10;;
23262;SDS011;11800;49.830;9.922;2022-09-17T09:58:49;0.10;;;0.10;;
23262;SDS011;11800;49.830;9.922;2022-09-17T10:01:15;0.10;;;0.10;;
23262;SDS011;11800;49.830;9.922;2022-09-17T10:03:44;0.10;;;0.10;;
23262;SDS011;11800;49.830;9.922;2022-09-17T10:06:11;0.10;;;0.10;;
23262;SDS011;11800;49.830;9.922;2022-09-17T10:08:41;0.10;;;0.10;;
23262;SDS011;11800;49.830;9.922;2022-09-17T10:13:36;0.10;;;0.10;;
23262;SDS011;11800;49.830;9.922;2022-09-17T10:16:14;0.10;;;0.10;;
23262;SDS011;11800;49.830;9.922;2022-09-17T10:18:41;0.10;;;0.10;;
23262;SDS011;11800;49.830;9.922;2022-09-17T10:21:17;0.10;;;0.10;;
23262;SDS011;11800;49.830;9.922;2022-09-17T10:23:44;0.10;;;0.10;;
23262;SDS011;11800;49.830;9.922;2022-09-17T10:26:26;0.10;;;0.10;;
23262;SDS011;11800;49.830;9.922;2022-09-17T10:28:54;0.10;;;0.10;;
23262;SDS011;11800;49.830;9.922;2022-09-17T10:31:20;0.10;;;0.10;;
23262;SDS011;11800;49.830;9.922;2022-09-17T10:33:51;0.10;;;0.10;;
23262;SDS011;11800;49.830;9.922;2022-09-17T10:36:34;0.10;;;0.10;;
23262;SDS011;11800;49.830;9.922;2022-09-17T10:39:18;0.10;;;0.10;;
23262;SDS011;11800;49.830;9.922;2022-09-17T10:41:54;0.10;;;0.10;;
23262;SDS011;11800;49.830;9.922;2022-09-17T10:44:21;0.10;;;0.10;;
23262;SDS011;11800;49.830;9.922;2022-09-17T10:46:48;0.10;;;0.10;;
23262;SDS011;11800;49.830;9.922;2022-09-17T10:49:22;0.10;;;0.10;;
23262;SDS011;11800;49.830;9.922;2022-09-17T10:51:51;0.10;;;0.10;;
23262;SDS011;11800;49.830;9.922;2022-09-17T10:57:00;0.10;;;0.10;;
23262;SDS011;11800;49.830;9.922;2022-09-17T10:59:45;0.10;;;0.10;;
23262;SDS011;11800;49.830;9.922;2022-09-17T11:07:41;0.10;;;0.10;;
23262;SDS011;11800;49.830;9.922;2022-09-17T11:25:23;0.10;;;0.10;;
23262;SDS011;11800;49.830;9.922;2022-09-17T11:30:21;0.10;;;0.10;;
23262;SDS011;11800;49.830;9.922;2022-09-17T11:35:27;0.10;;;0.10;;
23262;SDS011;11800;49.830;9.922;2022-09-17T11:40:36;0.10;;;0.10;;
23262;SDS011;11800;49.830;9.922;2022-09-17T11:48:29;0.10;;;0.10;;
23262;SDS011;11800;49.830;9.922;2022-09-17T11:50:58;0.10;;;0.10;;
23262;SDS011;11800;49.830;9.922;2022-09-17T11:53:30;0.10;;;0.10;;
23262;SDS011;11800;49.830;9.922;2022-09-17T11:55:58;0.10;;;0.10;;
23262;SDS011;11800;49.830;9.922;2022-09-17T11:58:41;0.10;;;0.10;;
23262;SDS011;11800;49.830;9.922;2022-09-17T12:01:09;0.10;;;0.10;;
23262;SDS011;11800;49.830;9.922;2022-09-17T12:03:41;0.10;;;0.10;;
23262;SDS011;11800;49.830;9.922;2022-09-17T12:06:10;0.10;;;0.10;;
23262;SDS011;11800;49.830;9.922;2022-09-17T12:11:13;0.10;;;0.10;;
23262;SDS011;11800;49.830;9.922;2022-09-17T12:13:43;0.10;;;0.10;;
23262;SDS011;11800;49.830;9.922;2022-09-17T12:19:11;0.10;;;0.10;;
23262;SDS011;11800;49.830;9.922;2022-09-17T12:21:41;0.10;;;0.10;;
23262;SDS011;11800;49.830;9.922;2022-09-17T12:24:11;0.10;;;0.10;;
23262;SDS011;11800;49.830;9.922;2022-09-17T12:47:17;0.10;;;0.10;;
23262;SDS011;11800;49.830;9.922;2022-09-17T12:59:40;0.10;;;0.10;;
23262;SDS011;11800;49.830;9.922;2022-09-17T13:02:18;0.10;;;0.10;;
23262;SDS011;11800;49.830;9.922;2022-09-17T13:12:24;0.17;;;0.17;;
23262;SDS011;11800;49.830;9.922;2022-09-17T13:17:42;0.10;;;0.10;;
23262;SDS011;11800;49.830;9.922;2022-09-17T13:20:21;0.10;;;0.10;;
23262;SDS011;11800;49.830;9.922;2022-09-17T13:22:49;0.10;;;0.10;;
23262;SDS011;11800;49.830;9.922;2022-09-17T13:25:17;0.10;;;0.10;;
23262;SDS011;11800;49.830;9.922;2022-09-17T13:27:44;0.10;;;0.10;;
23262;SDS011;11800;49.830;9.922;2022-09-17T13:30:11;0.10;;;0.10;;
23262;SDS011;11800;49.830;9.922;2022-09-17T13:37:31;0.10;;;0.10;;
23262;SDS011;11800;49.830;9.922;2022-09-17T13:39:58;0.10;;;0.10;;
23262;SDS011;11800;49.830;9.922;2022-09-17T13:42:26;0.10;;;0.10;;
23262;SDS011;11800;49.830;9.922;2022-09-17T13:47:26;0.10;;;0.10;;
23262;SDS011;11800;49.830;9.922;2022-09-17T13:49:57;0.10;;;0.10;;
23262;SDS011;11800;49.830;9.922;2022-09-17T13:52:30;0.10;;;0.10;;
23262;SDS011;11800;49.830;9.922;2022-09-17T13:54:57;0.10;;;0.10;;
23262;SDS011;11800;49.830;9.922;2022-09-17T13:57:23;0.10;;;0.10;;
23262;SDS011;11800;49.830;9.922;2022-09-17T13:59:55;0.10;;;0.10;;
23262;SDS011;11800;49.830;9.922;2022-09-17T14:04:53;0.10;;;0.10;;
23262;SDS011;11800;49.830;9.922;2022-09-17T14:17:50;0.10;;;0.10;;
23262;SDS011;11800;49.830;9.922;2022-09-17T14:20:19;0.10;;;0.10;;
23262;SDS011;11800;49.830;9.922;2022-09-17T14:22:53;0.10;;;0.10;;
23262;SDS011;11800;49.830;9.922;2022-09-17T14:25:19;0.20;;;0.20;;
23262;SDS011;11800;49.830;9.922;2022-09-17T14:27:51;0.10;;;0.10;;
23262;SDS011;11800;49.830;9.922;2022-09-17T14:35:21;0.20;;;0.20;;
23262;SDS011;11800;49.830;9.922;2022-09-17T14:37:52;0.20;;;0.20;;
23262;SDS011;11800;49.830;9.922;2022-09-17T14:40:19;0.30;;;0.30;;
23262;SDS011;11800;49.830;9.922;2022-09-17T14:42:47;0.30;;;0.30;;
23262;SDS011;11800;49.830;9.922;2022-09-17T14:45:21;0.10;;;0.10;;
23262;SDS011;11800;49.830;9.922;2022-09-17T14:47:48;0.43;;;0.43;;
23262;SDS011;11800;49.830;9.922;2022-09-17T14:52:47;0.20;;;0.20;;
23262;SDS011;11800;49.830;9.922;2022-09-17T14:55:18;0.70;;;0.70;;
23262;SDS011;11800;49.830;9.922;2022-09-17T14:57:45;0.57;;;0.57;;
23262;SDS011;11800;49.830;9.922;2022-09-17T15:00:15;0.63;;;0.63;;
23262;SDS011;11800;49.830;9.922;2022-09-17T15:02:42;0.57;;;0.57;;
23262;SDS011;11800;49.830;9.922;2022-09-17T15:05:22;0.50;;;0.50;;
23262;SDS011;11800;49.830;9.922;2022-09-17T15:07:50;0.10;;;0.10;;
23262;SDS011;11800;49.830;9.922;2022-09-17T15:10:18;0.10;;;0.10;;
23262;SDS011;11800;49.830;9.922;2022-09-17T15:12:45;0.10;;;0.10;;
23262;SDS011;11800;49.830;9.922;2022-09-17T15:15:16;0.10;;;0.10;;
23262;SDS011;11800;49.830;9.922;2022-09-17T15:17:42;0.10;;;0.10;;
23262;SDS011;11800;49.830;9.922;2022-09-17T15:20:09;0.10;;;0.10;;
23262;SDS011;11800;49.830;9.922;2022-09-17T15:22:40;0.10;;;0.10;;
23262;SDS011;11800;49.830;9.922;2022-09-17T15:25:08;0.08;;;0.08;;
23262;SDS011;11800;49.830;9.922;2022-09-17T15:27:39;0.10;;;0.10;;
23262;SDS011;11800;49.830;9.922;2022-09-17T15:30:16;0.05;;;0.05;;
23262;SDS011;11800;49.830;9.922;2022-09-17T15:32:48;0.10;;;0.10;;
23262;SDS011;11800;49.830;9.922;2022-09-17T15:37:54;0.10;;;0.10;;
23262;SDS011;11800;49.830;9.922;2022-09-17T15:40:36;0.00;;;0.00;;
23262;SDS011;11800;49.830;9.922;2022-09-17T15:45:50;0.10;;;0.10;;
23262;SDS011;11800;49.830;9.922;2022-09-17T15:51:01;0.10;;;0.10;;
23262;SDS011;11800;49.830;9.922;2022-09-17T15:53:32;0.10;;;0.10;;
23262;SDS011;11800;49.830;9.922;2022-09-17T15:58:26;0.10;;;0.10;;
23262;SDS011;11800;49.830;9.922;2022-09-17T16:06:32;0.10;;;0.10;;
23262;SDS011;11800;49.830;9.922;2022-09-17T16:08:50;0.10;;;0.10;;
23262;SDS011;11800;49.830;9.922;2022-09-17T16:11:17;0.10;;;0.10;;
23262;SDS011;11800;49.830;9.922;2022-09-17T16:13:47;0.10;;;0.10;;
23262;SDS011;11800;49.830;9.922;2022-09-17T16:16:14;0.10;;;0.10;;
23262;SDS011;11800;49.830;9.922;2022-09-17T16:18:42;0.10;;;0.10;;
23262;SDS011;11800;49.830;9.922;2022-09-17T16:21:11;0.10;;;0.10;;
23262;SDS011;11800;49.830;9.922;2022-09-17T16:23:37;0.10;;;0.10;;
23262;SDS011;11800;49.830;9.922;2022-09-17T16:26:03;0.10;;;0.10;;
23262;SDS011;11800;49.830;9.922;2022-09-17T16:28:30;0.05;;;0.05;;
23262;SDS011;11800;49.830;9.922;2022-09-17T16:30:56;0.10;;;0.10;;
23262;SDS011;11800;49.830;9.922;2022-09-17T16:33:22;0.10;;;0.10;;
23262;SDS011;11800;49.830;9.922;2022-09-17T16:35:50;0.10;;;0.10;;
23262;SDS011;11800;49.830;9.922;2022-09-17T16:38:16;0.10;;;0.10;;
23262;SDS011;11800;49.830;9.922;2022-09-17T16:40:42;0.10;;;0.10;;
23262;SDS011;11800;49.830;9.922;2022-09-17T16:43:10;0.10;;;0.10;;
23262;SDS011;11800;49.830;9.922;2022-09-17T16:45:36;0.10;;;0.10;;
23262;SDS011;11800;49.830;9.922;2022-09-17T16:48:03;0.10;;;0.10;;
23262;SDS011;11800;49.830;9.922;2022-09-17T16:50:30;0.10;;;0.10;;
23262;SDS011;11800;49.830;9.922;2022-09-17T16:52:56;0.10;;;0.10;;
23262;SDS011;11800;49.830;9.922;2022-09-17T16:55:22;0.10;;;0.10;;
23262;SDS011;11800;49.830;9.922;2022-09-17T16:57:48;0.10;;;0.10;;
23262;SDS011;11800;49.830;9.922;2022-09-17T17:00:16;0.10;;;0.10;;
23262;SDS011;11800;49.830;9.922;2022-09-17T17:02:49;0.10;;;0.10;;
23262;SDS011;11800;49.830;9.922;2022-09-17T17:05:16;0.10;;;0.10;;
23262;SDS011;11800;49.830;9.922;2022-09-17T17:07:42;0.10;;;0.10;;
23262;SDS011;11800;49.830;9.922;2022-09-17T17:10:08;0.10;;;0.10;;
23262;SDS011;11800;49.830;9.922;2022-09-17T17:12:35;0.00;;;0.00;;
23262;SDS011;11800;49.830;9.922;2022-09-17T17:15:01;0.10;;;0.10;;
23262;SDS011;11800;49.830;9.922;2022-09-17T17:17:30;0.10;;;0.10;;
23262;SDS011;11800;49.830;9.922;2022-09-17T17:19:57;0.05;;;0.05;;
23262;SDS011;11800;49.830;9.922;2022-09-17T17:22:23;0.10;;;0.10;;
23262;SDS011;11800;49.830;9.922;2022-09-17T17:24:49;0.10;;;0.10;;
23262;SDS011;11800;49.830;9.922;2022-09-17T17:27:15;0.10;;;0.10;;
23262;SDS011;11800;49.830;9.922;2022-09-17T17:29:41;0.10;;;0.10;;
23262;SDS011;11800;49.830;9.922;2022-09-17T17:32:07;0.00;;;0.00;;
23262;SDS011;11800;49.830;9.922;2022-09-17T17:34:33;0.10;;;0.10;;
23262;SDS011;11800;49.830;9.922;2022-09-17T17:37:00;0.10;;;0.10;;
23262;SDS011;11800;49.830;9.922;2022-09-17T17:39:26;0.10;;;0.10;;
23262;SDS011;11800;49.830;9.922;2022-09-17T17:41:52;0.10;;;0.10;;
23262;SDS011;11800;49.830;9.922;2022-09-17T17:44:19;0.10;;;0.10;;
23262;SDS011;11800;49.830;9.922;2022-09-17T17:46:45;0.10;;;0.10;;
23262;SDS011;11800;49.830;9.922;2022-09-17T17:49:12;0.10;;;0.10;;
23262;SDS011;11800;49.830;9.922;2022-09-17T17:51:38;0.10;;;0.10;;
23262;SDS011;11800;49.830;9.922;2022-09-17T17:54:04;0.10;;;0.10;;
23262;SDS011;11800;49.830;9.922;2022-09-17T17:56:31;0.10;;;0.10;;
23262;SDS011;11800;49.830;9.922;2022-09-17T17:58:57;0.10;;;0.10;;
23262;SDS011;11800;49.830;9.922;2022-09-17T18:01:24;0.10;;;0.10;;
23262;SDS011;11800;49.830;9.922;2022-09-17T18:03:54;0.10;;;0.10;;
23262;SDS011;11800;49.830;9.922;2022-09-17T18:06:20;0.10;;;0.10;;
23262;SDS011;11800;49.830;9.922;2022-09-17T18:08:46;0.10;;;0.10;;
23262;SDS011;11800;49.830;9.922;2022-09-17T18:11:12;0.10;;;0.10;;
23262;SDS011;11800;49.830;9.922;2022-09-17T18:13:38;0.10;;;0.10;;
23262;SDS011;11800;49.830;9.922;2022-09-17T18:16:04;0.10;;;0.10;;